Bryan's Hourly Summary for Sunday, July 8, 2018
Hour Temp
(f)
RH
(%)
Solar Rad.
(MJ/m2)
Rainfall
(in)
Wind
(mph)
7/8/2018 12:00 AM 73 97 0 0 0
7/8/2018 1:00 AM 73 97 0 0 0
7/8/2018 2:00 AM 73 97 0 0 0.05
7/8/2018 3:00 AM 73 97 0 0 0
7/8/2018 4:00 AM 72 97 0 0 0.26
7/8/2018 5:00 AM 72 97 0 0 0
7/8/2018 6:00 AM 72 97 0 0 0
7/8/2018 7:00 AM 72 97 0.02 0 0
7/8/2018 8:00 AM 72 98 0.08 0 0
7/8/2018 9:00 AM 73 97 0.56 0 0
7/8/2018 10:00 AM 75 97 1.73 0 0.13
7/8/2018 11:00 AM 78 80 2.33 0 2.04
7/8/2018 12:00 PM 82 71 1.51 0 1.09
7/8/2018 1:00 PM 84 62 1.74 0 1.3
7/8/2018 2:00 PM 85 55 2.1 0 4.23
7/8/2018 3:00 PM 79 69 0.74 0.01 4.19
7/8/2018 4:00 PM 78 78 0.58 0 1.45
7/8/2018 5:00 PM 81 70 1.06 0 3.47
7/8/2018 6:00 PM 81 70 0.89 0 3.4
7/8/2018 7:00 PM 80 71 0.73 0 5.04
7/8/2018 8:00 PM 80 72 0.29 0 2.5
7/8/2018 9:00 PM 78 76 0.02 0 0.11
7/8/2018 10:00 PM 77 83 0 0 1.85
7/8/2018 11:00 PM 76 86 0 0 0.43
Data Summary 76 83 14.38 0.01 1.31